Time;durP1;ratioP1;P1;durP2;ratioP2;P2;SDS_P1;SDS_P2;PMS_P1;PMS_P2;Temp;Humidity;BMP_temperature;BMP_pressure;BME280_temperature;BME280_humidity;BME280_pressure;Samples;Min_cycle;Max_cycle;Signal;HPM_P1;HPM_P2
2024/02/01 00:00:47;;;;;;;1.77;0.80;;;9.50;1.00;;;;;;5112751;28;20837;-61
2024/02/01 00:03:14;;;;;;;2.47;0.80;;;9.50;1.00;;;;;;5112268;28;20767;-61
2024/02/01 00:05:41;;;;;;;1.70;0.90;;;9.40;1.00;;;;;;5111247;28;20435;-61
2024/02/01 00:08:08;;;;;;;1.38;0.80;;;9.40;1.00;;;;;;5099768;28;20434;-61
2024/02/01 00:10:35;;;;;;;2.05;0.90;;;9.40;1.00;;;;;;5095823;28;20434;-60
2024/02/01 00:13:03;;;;;;;1.40;0.80;;;9.50;1.00;;;;;;5095476;28;20516;-60
2024/02/01 00:15:30;;;;;;;2.72;0.90;;;9.60;1.00;;;;;;5095191;28;20438;-61
2024/02/01 00:17:57;;;;;;;1.60;0.70;;;9.70;1.00;;;;;;5094535;28;20795;-61
2024/02/01 00:20:24;;;;;;;1.63;0.73;;;9.70;1.00;;;;;;5100354;28;20424;-61
2024/02/01 00:22:51;;;;;;;2.10;0.70;;;9.60;1.00;;;;;;5113591;28;20420;-61
2024/02/01 00:25:18;;;;;;;1.00;0.60;;;9.60;1.00;;;;;;5112475;28;20433;-60
2024/02/01 00:27:45;;;;;;;1.60;0.70;;;9.50;1.00;;;;;;5114607;28;20439;-61
2024/02/01 00:30:14;;;;;;;1.00;0.70;;;9.50;1.00;;;;;;5111737;28;20440;-61
2024/02/01 00:32:41;;;;;;;1.50;0.70;;;9.50;1.00;;;;;;5096510;28;20426;-61
2024/02/01 00:35:08;;;;;;;1.30;0.60;;;9.50;1.00;;;;;;5114497;28;20428;-61
2024/02/01 00:37:35;;;;;;;2.10;0.70;;;9.60;1.00;;;;;;5113307;28;20425;-61
2024/02/01 00:40:03;;;;;;;1.00;0.60;;;9.60;99.90;;;;;;5112450;28;20489;-60
2024/02/01 00:42:30;;;;;;;1.80;0.70;;;9.60;99.90;;;;;;5096121;28;20971;-61
2024/02/01 00:44:57;;;;;;;1.10;0.70;;;9.60;99.90;;;;;;5094324;28;20421;-61
2024/02/01 00:47:25;;;;;;;1.30;0.70;;;9.60;99.90;;;;;;5082184;28;20428;-61
2024/02/01 00:49:52;;;;;;;1.35;0.60;;;9.60;99.90;;;;;;5114388;28;20469;-61
2024/02/01 00:52:19;;;;;;;1.48;0.70;;;9.60;99.90;;;;;;5092907;28;20503;-61
2024/02/01 00:54:46;;;;;;;1.45;0.70;;;9.60;99.90;;;;;;5095273;28;20490;-61
2024/02/01 00:57:13;;;;;;;1.58;0.70;;;9.60;99.90;;;;;;5114640;28;20424;-61
2024/02/01 00:59:40;;;;;;;1.17;0.60;;;9.60;99.90;;;;;;5113686;28;20469;-60
2024/02/01 01:02:07;;;;;;;2.08;0.70;;;9.60;99.90;;;;;;5095918;28;20438;-60
2024/02/01 01:04:35;;;;;;;1.33;0.63;;;9.60;99.90;;;;;;5105657;28;20774;-61
2024/02/01 01:07:02;;;;;;;1.20;0.60;;;9.70;23.30;;;;;;5099716;28;20574;-61
2024/02/01 01:09:29;;;;;;;0.90;0.57;;;9.70;34.90;;;;;;5095195;28;20933;-61
2024/02/01 01:11:56;;;;;;;0.98;0.57;;;9.60;94.70;;;;;;5097733;28;20477;-62
2024/02/01 01:14:23;;;;;;;1.10;0.70;;;9.60;99.90;;;;;;5102796;28;20864;-61
2024/02/01 01:16:50;;;;;;;2.40;0.60;;;9.50;99.90;;;;;;5092702;28;20418;-60
2024/02/01 01:19:17;;;;;;;1.50;0.70;;;9.50;99.90;;;;;;5094277;28;20425;-60
2024/02/01 01:21:45;;;;;;;1.00;0.60;;;9.60;99.90;;;;;;5092424;28;20430;-61
2024/02/01 01:24:12;;;;;;;2.00;0.60;;;9.60;99.90;;;;;;5093333;28;20924;-61
2024/02/01 01:26:39;;;;;;;1.73;0.70;;;9.70;99.90;;;;;;5093225;28;20450;-61
2024/02/01 01:29:06;;;;;;;1.48;0.50;;;9.80;99.90;;;;;;5093786;28;20422;-61
2024/02/01 01:31:33;;;;;;;0.90;0.50;;;9.90;99.90;;;;;;5096804;28;20430;-61
2024/02/01 01:34:00;;;;;;;0.90;0.50;;;9.90;7.00;;;;;;5113738;28;20560;-61
2024/02/01 01:36:27;;;;;;;1.52;0.60;;;10.00;1.00;;;;;;5112378;28;20435;-61
2024/02/01 01:38:56;;;;;;;1.40;0.60;;;10.00;1.00;;;;;;5113207;28;20423;-60
2024/02/01 01:41:23;;;;;;;1.88;0.60;;;10.10;1.00;;;;;;5097806;28;20512;-61
2024/02/01 01:43:50;;;;;;;0.80;0.60;;;10.10;1.00;;;;;;5081159;28;20514;-61
2024/02/01 01:46:17;;;;;;;1.30;0.63;;;10.10;99.90;;;;;;5099734;28;20505;-61
2024/02/01 01:48:44;;;;;;;1.20;0.50;;;10.00;1.00;;;;;;5114234;28;20469;-60
2024/02/01 01:51:11;;;;;;;1.40;0.70;;;10.00;1.00;;;;;;5100627;28;20504;-60
2024/02/01 01:53:39;;;;;;;1.42;0.68;;;10.00;6.70;;;;;;5094753;28;20418;-61
2024/02/01 01:56:08;;;;;;;1.30;0.60;;;10.00;1.00;;;;;;5113886;28;20705;-60
2024/02/01 01:58:36;;;;;;;1.52;0.60;;;9.90;1.00;;;;;;5096980;28;20917;-61
2024/02/01 02:01:04;;;;;;;1.30;0.50;;;9.80;25.20;;;;;;5097040;28;20432;-61
2024/02/01 02:03:33;;;;;;;1.10;0.70;;;9.80;99.90;;;;;;5073670;28;20489;-61
2024/02/01 02:06:00;;;;;;;0.85;0.60;;;9.90;99.90;;;;;;5112877;28;20477;-61
2024/02/01 02:08:27;;;;;;;2.00;0.60;;;9.90;99.90;;;;;;5103542;28;20475;-61
2024/02/01 02:10:54;;;;;;;2.05;0.60;;;10.00;91.70;;;;;;5109263;28;20432;-61
2024/02/01 02:13:23;;;;;;;1.10;0.60;;;10.00;1.00;;;;;;5109221;28;20433;-61
2024/02/01 02:15:50;;;;;;;1.50;0.60;;;10.00;1.00;;;;;;5072352;28;20492;-61
2024/02/01 02:18:17;;;;;;;2.00;0.60;;;9.90;1.00;;;;;;5102518;28;20451;-61
2024/02/01 02:20:48;;;;;;;1.02;0.60;;;9.80;99.90;;;;;;5094478;28;20422;-61
2024/02/01 02:23:17;;;;;;;3.47;0.80;;;9.70;99.90;;;;;;5093008;28;20506;-61
2024/02/01 02:25:48;;;;;;;1.75;0.70;;;9.70;99.90;;;;;;5092650;28;20418;-61
2024/02/01 02:28:15;;;;;;;1.60;0.70;;;9.60;1.00;;;;;;5093265;28;20815;-61
2024/02/01 02:30:42;;;;;;;2.20;0.80;;;9.60;1.00;;;;;;5092558;28;20425;-61
2024/02/01 02:33:09;;;;;;;2.53;0.80;;;9.50;1.00;;;;;;5106775;28;20420;-61
2024/02/01 02:35:36;;;;;;;1.10;0.70;;;9.60;1.00;;;;;;5096164;28;20447;-61
2024/02/01 02:38:03;;;;;;;1.60;0.70;;;9.60;99.90;;;;;;5113537;28;20910;-60
2024/02/01 02:40:31;;;;;;;3.75;0.90;;;9.70;99.90;;;;;;5113375;28;20432;-61
2024/02/01 02:42:58;;;;;;;1.25;0.80;;;9.80;99.90;;;;;;5099347;28;20833;-60
2024/02/01 02:45:26;;;;;;;2.50;0.98;;;10.00;1.00;;;;;;5089965;28;20429;-61
2024/02/01 02:47:54;;;;;;;1.63;1.00;;;10.00;99.90;;;;;;5095396;28;20428;-61
2024/02/01 02:50:21;;;;;;;2.40;1.00;;;10.00;9.00;;;;;;5112638;28;20416;-61
2024/02/01 02:52:48;;;;;;;1.20;0.80;;;10.00;99.90;;;;;;5112466;28;20691;-61
2024/02/01 02:55:15;;;;;;;2.22;0.80;;;10.00;99.90;;;;;;5092591;28;20515;-60
2024/02/01 02:57:44;;;;;;;2.43;0.90;;;10.00;1.00;;;;;;5071977;28;20420;-61
2024/02/01 03:00:18;;;;;;;1.30;0.70;;;10.10;1.00;;;;;;5071651;28;20461;-61
2024/02/01 03:02:45;;;;;;;1.60;0.80;;;10.10;99.90;;;;;;5091721;28;20761;-61
2024/02/01 03:05:12;;;;;;;3.60;0.80;;;10.10;99.90;;;;;;5106013;28;20554;-61
2024/02/01 03:07:39;;;;;;;2.30;0.90;;;10.00;99.90;;;;;;5092290;28;20438;-61
2024/02/01 03:10:07;;;;;;;1.80;0.80;;;9.90;67.40;;;;;;5092762;28;20483;-61
2024/02/01 03:12:34;;;;;;;1.48;0.90;;;9.90;99.50;;;;;;5104169;28;21003;-61
2024/02/01 03:15:03;;;;;;;2.80;0.80;;;9.90;47.40;;;;;;5093011;28;20421;-60
2024/02/01 03:17:30;;;;;;;1.60;0.80;;;9.90;1.00;;;;;;5093012;28;20754;-61
2024/02/01 03:19:57;;;;;;;1.20;0.80;;;9.90;61.40;;;;;;5096672;28;20707;-61
2024/02/01 03:22:24;;;;;;;1.40;0.80;;;9.90;99.90;;;;;;5092372;28;20996;-61
2024/02/01 03:24:58;;;;;;;1.80;0.70;;;9.90;1.00;;;;;;5107104;28;20512;-61
2024/02/01 03:27:25;;;;;;;1.30;0.70;;;9.90;99.90;;;;;;5097144;28;20897;-61
2024/02/01 03:29:52;;;;;;;1.20;0.70;;;9.80;1.00;;;;;;5096332;28;20413;-61
2024/02/01 03:32:21;;;;;;;1.80;0.70;;;9.70;1.00;;;;;;5095540;28;21067;-61
2024/02/01 03:34:47;;;;;;;1.00;0.65;;;9.70;30.00;;;;;;5096612;28;20429;-61
2024/02/01 03:37:15;;;;;;;0.90;0.60;;;9.70;52.90;;;;;;5097869;28;20502;-61
2024/02/01 03:39:42;;;;;;;1.50;0.70;;;9.70;18.10;;;;;;5095546;28;20462;-61
2024/02/01 03:42:09;;;;;;;1.15;0.70;;;9.70;1.00;;;;;;5096243;28;20422;-60
2024/02/01 03:44:39;;;;;;;1.00;0.60;;;9.70;1.00;;;;;;5096290;28;20494;-61
2024/02/01 03:47:09;;;;;;;1.60;0.60;;;9.70;1.00;;;;;;5096168;28;20685;-61
2024/02/01 03:49:39;;;;;;;1.20;0.60;;;9.60;1.00;;;;;;5095874;28;20425;-61
2024/02/01 03:52:07;;;;;;;2.20;0.70;;;9.60;1.00;;;;;;5096345;28;20436;-61
2024/02/01 03:54:34;;;;;;;1.30;0.70;;;9.70;1.00;;;;;;5096313;28;20509;-61
2024/02/01 03:57:01;;;;;;;0.90;0.60;;;9.70;1.00;;;;;;5096004;28;20499;-61
2024/02/01 03:59:29;;;;;;;1.10;0.63;;;9.70;1.00;;;;;;5096593;28;20426;-61
2024/02/01 04:02:03;;;;;;;2.67;0.70;;;9.70;1.00;;;;;;5097780;28;20438;-61
2024/02/01 04:04:30;;;;;;;1.10;0.60;;;9.60;1.00;;;;;;5114982;28;20424;-61
2024/02/01 04:06:59;;;;;;;0.98;0.70;;;9.70;1.00;;;;;;5112460;28;21260;-61
2024/02/01 04:09:26;;;;;;;1.98;0.70;;;9.70;19.20;;;;;;5114242;28;20435;-60
2024/02/01 04:11:53;;;;;;;1.10;0.60;;;9.80;1.00;;;;;;5116243;28;20477;-60
2024/02/01 04:14:20;;;;;;;1.35;0.70;;;9.80;99.90;;;;;;5112544;28;20420;-60
2024/02/01 04:16:47;;;;;;;1.48;0.60;;;9.90;99.90;;;;;;5114912;28;20416;-60
2024/02/01 04:19:14;;;;;;;1.10;0.60;;;9.80;99.90;;;;;;5115980;28;20452;-60
2024/02/01 04:21:45;;;;;;;1.10;0.52;;;9.80;99.90;;;;;;5115593;28;20444;-60
2024/02/01 04:24:14;;;;;;;1.00;0.60;;;9.80;99.90;;;;;;5115658;28;20839;-60
2024/02/01 04:26:41;;;;;;;1.10;0.60;;;9.90;99.90;;;;;;5112639;28;20421;-60
2024/02/01 04:29:09;;;;;;;1.40;0.50;;;9.90;1.00;;;;;;5101332;27;20426;-60
2024/02/01 04:31:36;;;;;;;0.90;0.50;;;9.90;6.70;;;;;;5095445;28;20817;-60
2024/02/01 04:34:03;;;;;;;1.27;0.50;;;9.90;99.90;;;;;;5097186;28;20809;-60
2024/02/01 04:36:30;;;;;;;1.00;0.60;;;9.90;1.00;;;;;;5098082;28;20437;-60
2024/02/01 04:38:57;;;;;;;0.82;0.47;;;9.90;1.00;;;;;;5095273;28;20539;-60
2024/02/01 04:41:26;;;;;;;1.35;0.60;;;9.90;1.00;;;;;;5095597;28;20805;-60
2024/02/01 04:43:55;;;;;;;1.65;0.60;;;9.90;1.00;;;;;;5109994;28;20439;-60
2024/02/01 04:46:24;;;;;;;1.00;0.50;;;9.80;1.00;;;;;;5115719;28;20679;-60
2024/02/01 04:48:51;;;;;;;1.30;0.50;;;9.90;1.00;;;;;;5114807;28;20443;-60
2024/02/01 04:51:18;;;;;;;1.20;0.50;;;9.90;1.00;;;;;;5115456;28;20488;-60
2024/02/01 04:53:45;;;;;;;1.00;0.50;;;9.80;1.00;;;;;;5111373;28;20432;-60
2024/02/01 04:56:12;;;;;;;0.90;0.57;;;9.80;1.00;;;;;;5102926;28;20873;-60
2024/02/01 04:58:41;;;;;;;0.80;0.50;;;9.80;1.00;;;;;;5092857;28;20426;-60
2024/02/01 05:01:09;;;;;;;0.85;0.50;;;9.80;1.00;;;;;;5107730;28;20432;-60
2024/02/01 05:03:37;;;;;;;0.90;0.40;;;9.80;1.00;;;;;;5113183;28;20431;-60
2024/02/01 05:06:07;;;;;;;1.60;0.40;;;9.80;1.00;;;;;;5113920;28;20420;-59
2024/02/01 05:08:35;;;;;;;0.50;0.40;;;9.80;1.00;;;;;;5113594;28;20910;-60
2024/02/01 05:11:02;;;;;;;1.00;0.43;;;9.90;1.00;;;;;;5114892;28;20428;-60
2024/02/01 05:13:30;;;;;;;0.90;0.50;;;9.90;1.00;;;;;;5110122;28;20491;-60
2024/02/01 05:16:02;;;;;;;0.80;0.40;;;9.90;1.00;;;;;;5092632;28;20471;-60
2024/02/01 05:18:29;;;;;;;1.20;0.50;;;9.90;1.00;;;;;;5102435;28;20544;-60
2024/02/01 05:20:56;;;;;;;0.75;0.40;;;9.80;1.00;;;;;;5105198;28;20487;-60
2024/02/01 05:23:23;;;;;;;0.82;0.43;;;9.90;1.00;;;;;;5093055;28;20417;-60
2024/02/01 05:25:50;;;;;;;0.90;0.50;;;9.80;12.20;;;;;;5093779;28;20526;-60
2024/02/01 05:28:18;;;;;;;0.70;0.40;;;9.80;99.90;;;;;;5094244;28;20437;-60
2024/02/01 05:30:45;;;;;;;1.40;0.40;;;9.70;1.00;;;;;;5093116;28;20429;-60
2024/02/01 05:33:14;;;;;;;1.70;0.50;;;9.80;1.00;;;;;;5092682;28;20505;-60
2024/02/01 05:35:42;;;;;;;1.20;0.50;;;9.80;99.90;;;;;;5093107;28;20422;-60
2024/02/01 05:38:09;;;;;;;1.10;0.50;;;9.70;99.90;;;;;;5092751;28;20449;-60
2024/02/01 05:40:38;;;;;;;0.80;0.40;;;9.70;1.00;;;;;;5094033;28;20429;-60
2024/02/01 05:43:05;;;;;;;1.00;0.50;;;9.80;1.00;;;;;;5094588;28;20450;-60
2024/02/01 05:45:34;;;;;;;0.88;0.40;;;9.80;1.00;;;;;;5094807;28;20505;-60
2024/02/01 05:48:03;;;;;;;1.00;0.40;;;9.80;99.90;;;;;;5091229;28;20437;-60
2024/02/01 05:50:31;;;;;;;0.80;0.40;;;9.80;99.90;;;;;;5095606;28;20415;-60
2024/02/01 05:52:58;;;;;;;0.85;0.40;;;9.80;1.00;;;;;;5098329;28;20487;-60
2024/02/01 05:55:25;;;;;;;0.70;0.40;;;9.90;99.90;;;;;;5091801;28;20433;-60
2024/02/01 05:57:52;;;;;;;1.20;0.47;;;9.90;1.00;;;;;;5091803;28;20417;-60
2024/02/01 06:00:21;;;;;;;1.20;0.50;;;9.90;1.00;;;;;;5091570;28;20425;-60
2024/02/01 06:02:49;;;;;;;0.85;0.40;;;9.90;99.90;;;;;;5091008;28;20497;-61
2024/02/01 06:05:16;;;;;;;1.45;0.60;;;9.90;75.00;;;;;;5090688;28;20703;-59
2024/02/01 06:07:44;;;;;;;1.30;0.50;;;9.90;1.00;;;;;;5101170;28;21074;-60
2024/02/01 06:10:11;;;;;;;0.80;0.40;;;9.90;1.00;;;;;;5092311;28;20490;-59
2024/02/01 06:12:38;;;;;;;0.80;0.47;;;9.90;1.00;;;;;;5092481;28;20502;-61
2024/02/01 06:15:06;;;;;;;0.60;0.40;;;9.80;99.90;;;;;;5091587;28;20421;-60
2024/02/01 06:17:34;;;;;;;0.80;0.50;;;9.80;1.00;;;;;;5092418;28;20468;-61
2024/02/01 06:20:01;;;;;;;0.70;0.50;;;9.80;7.40;;;;;;5085043;28;20501;-62
2024/02/01 06:22:28;;;;;;;0.80;0.50;;;9.70;99.90;;;;;;5085722;28;20438;-60
2024/02/01 06:24:56;;;;;;;0.80;0.50;;;9.70;99.90;;;;;;5100217;28;20425;-60
2024/02/01 06:27:22;;;;;;;1.90;0.50;;;9.60;1.00;;;;;;5090747;28;20506;-60
2024/02/01 06:29:49;;;;;;;0.90;0.50;;;9.60;1.00;;;;;;5096018;28;20507;-60
2024/02/01 06:32:20;;;;;;;1.20;0.50;;;9.60;1.00;;;;;;5094636;28;20422;-60
2024/02/01 06:34:54;;;;;;;1.20;0.60;;;9.60;1.00;;;;;;5101843;28;20789;-60
2024/02/01 06:37:22;;;;;;;0.90;0.50;;;9.60;1.00;;;;;;5092741;28;20463;-58
2024/02/01 06:40:10;;;;;;;1.90;0.60;;;9.50;1.00;;;;;;5092637;28;20465;-59
2024/02/01 06:42:54;;;;;;;0.73;0.40;;;9.40;1.00;;;;;;5090340;28;20436;-60
2024/02/01 06:45:28;;;;;;;1.30;0.60;;;9.30;1.00;;;;;;5090839;28;20727;-59
2024/02/01 06:48:04;;;;;;;1.70;0.50;;;9.20;1.00;;;;;;5089032;28;20513;-59
2024/02/01 06:50:54;;;;;;;1.00;0.50;;;9.10;2.60;;;;;;5106664;28;20420;-59
2024/02/01 06:53:23;;;;;;;0.90;0.50;;;9.10;27.60;;;;;;5111884;28;20473;-58
2024/02/01 06:55:56;;;;;;;1.80;0.50;;;9.10;34.50;;;;;;5111016;28;20481;-60
2024/02/01 07:01:24;;;;;;;0.75;0.40;;;9.10;44.80;;;;;;5110352;28;20419;-57
2024/02/01 07:03:56;;;;;;;1.00;0.50;;;9.00;75.80;;;;;;5115356;28;20430;-57
2024/02/01 07:06:33;;;;;;;1.90;0.60;;;9.00;92.00;;;;;;5108747;28;20496;-54
2024/02/01 07:11:48;;;;;;;2.50;0.70;;;8.90;99.90;;;;;;5092003;28;20393;-55
2024/02/01 07:14:17;;;;;;;1.20;0.50;;;8.70;99.90;;;;;;5083272;28;20645;-55
2024/02/01 07:16:54;;;;;;;1.00;0.50;;;8.70;99.90;;;;;;5093278;28;21008;-57
2024/02/01 07:19:33;;;;;;;1.50;0.40;;;8.60;99.90;;;;;;5092459;28;20430;-56
2024/02/01 07:24:59;;;;;;;1.92;0.60;;;8.50;99.90;;;;;;5093473;28;20416;-55
2024/02/01 07:57:51;;;;;;;1.80;0.60;;;8.60;99.90;;;;;;5092790;28;20838;-60
2024/02/01 08:00:27;;;;;;;1.75;0.47;;;8.50;99.90;;;;;;5093404;28;20433;-61
2024/02/01 08:03:03;;;;;;;0.80;0.40;;;8.50;99.90;;;;;;5071550;28;20790;-60
2024/02/01 08:08:15;;;;;;;1.85;0.70;;;8.50;99.90;;;;;;5071797;28;20569;-58
2024/02/01 08:10:43;;;;;;;1.37;0.40;;;8.50;99.90;;;;;;5072193;28;20558;-62
2024/02/01 08:13:12;;;;;;;1.00;0.50;;;8.60;99.90;;;;;;5073290;28;20427;-59
2024/02/01 08:15:41;;;;;;;0.70;0.30;;;8.60;99.90;;;;;;5092319;28;20524;-61
2024/02/01 08:18:10;;;;;;;2.60;0.40;;;8.50;99.90;;;;;;5092274;28;20531;-58
2024/02/01 08:20:37;;;;;;;1.70;0.50;;;8.60;99.90;;;;;;5091891;28;20410;-58
2024/02/01 08:23:05;;;;;;;0.93;0.40;;;8.50;99.90;;;;;;5092545;28;20426;-59
2024/02/01 08:25:33;;;;;;;0.80;0.50;;;8.50;99.90;;;;;;5092271;28;20433;-59
2024/02/01 08:28:01;;;;;;;1.10;0.40;;;8.50;99.90;;;;;;5092410;28;20782;-59
2024/02/01 08:30:31;;;;;;;2.17;0.60;;;8.50;99.90;;;;;;5091560;28;20425;-60
2024/02/01 08:33:03;;;;;;;0.73;0.40;;;8.40;99.90;;;;;;5090381;28;20464;-58
2024/02/01 08:35:33;;;;;;;2.80;0.40;;;8.40;99.90;;;;;;5092262;28;20422;-60
2024/02/01 08:38:01;;;;;;;0.77;0.30;;;8.60;99.90;;;;;;5092036;28;20422;-60
2024/02/01 08:40:28;;;;;;;1.42;0.45;;;8.50;99.90;;;;;;5092338;28;20890;-57
2024/02/01 08:42:59;;;;;;;0.70;0.40;;;8.50;99.90;;;;;;5090794;28;20908;-59
2024/02/01 08:45:28;;;;;;;2.20;0.40;;;8.50;99.90;;;;;;5091963;28;20432;-59
2024/02/01 08:48:00;;;;;;;0.80;0.30;;;8.50;99.90;;;;;;5092717;28;20429;-58
2024/02/01 08:50:28;;;;;;;0.68;0.35;;;8.70;99.90;;;;;;5112013;28;20416;-59
2024/02/01 08:52:56;;;;;;;1.10;0.40;;;8.70;99.90;;;;;;5112133;28;20446;-58
2024/02/01 08:55:23;;;;;;;0.70;0.40;;;8.70;99.90;;;;;;5113046;28;20416;-60
2024/02/01 08:57:50;;;;;;;1.00;0.40;;;8.70;99.90;;;;;;5111838;28;20432;-58
2024/02/01 09:00:31;;;;;;;0.70;0.30;;;8.70;99.90;;;;;;5112313;28;20431;-59
2024/02/01 09:03:05;;;;;;;0.70;0.40;;;8.70;99.90;;;;;;5090761;28;20469;-59
2024/02/01 09:05:34;;;;;;;0.50;0.30;;;8.70;99.90;;;;;;5091801;28;20414;-58
2024/02/01 09:08:03;;;;;;;1.30;0.30;;;8.70;99.90;;;;;;5091936;28;20421;-59
2024/02/01 09:10:30;;;;;;;0.80;0.30;;;8.70;99.90;;;;;;5091825;28;20463;-59
2024/02/01 09:12:57;;;;;;;1.20;0.40;;;8.70;99.90;;;;;;5091708;28;20422;-63
2024/02/01 09:15:24;;;;;;;0.88;0.40;;;8.70;99.90;;;;;;5091671;28;20418;-60
2024/02/01 09:17:52;;;;;;;0.70;0.40;;;8.70;99.90;;;;;;5090503;28;20467;-59
2024/02/01 09:20:21;;;;;;;0.80;0.40;;;8.70;99.90;;;;;;5090612;28;20425;-60
2024/02/01 09:22:49;;;;;;;2.30;0.40;;;8.70;99.90;;;;;;5089546;28;20433;-59
2024/02/01 09:25:20;;;;;;;0.80;0.40;;;8.70;99.90;;;;;;5092067;28;20830;-60
2024/02/01 09:27:48;;;;;;;0.70;0.30;;;8.90;99.90;;;;;;5091054;28;20442;-60
2024/02/01 09:30:17;;;;;;;0.63;0.40;;;8.90;99.90;;;;;;5091218;28;20904;-60
2024/02/01 09:32:45;;;;;;;0.80;0.40;;;8.90;99.90;;;;;;5091313;28;20541;-59
2024/02/01 09:35:17;;;;;;;0.90;0.40;;;8.90;99.90;;;;;;5091982;28;20456;-59
2024/02/01 09:37:44;;;;;;;3.90;0.50;;;8.90;99.90;;;;;;5090294;28;20492;-60
2024/02/01 09:40:13;;;;;;;1.13;0.60;;;8.90;99.90;;;;;;5091340;28;20753;-60
2024/02/01 09:42:42;;;;;;;0.70;0.40;;;8.90;99.90;;;;;;5090827;28;20768;-60
2024/02/01 09:45:10;;;;;;;1.70;0.60;;;8.90;99.90;;;;;;5109786;28;20528;-60
2024/02/01 09:47:46;;;;;;;1.10;0.40;;;9.00;99.90;;;;;;5111703;28;20869;-60
2024/02/01 09:50:14;;;;;;;0.70;0.40;;;9.10;99.90;;;;;;5111209;27;20507;-60
2024/02/01 09:52:46;;;;;;;0.70;0.40;;;9.10;99.90;;;;;;5106655;27;20444;-60
2024/02/01 09:55:17;;;;;;;0.98;0.40;;;9.30;99.90;;;;;;5111301;28;20455;-59
2024/02/01 09:57:47;;;;;;;2.10;1.20;;;9.50;99.90;;;;;;5111264;28;20455;-59
2024/02/01 10:00:18;;;;;;;1.13;0.40;;;9.70;99.90;;;;;;5111505;28;20809;-59
2024/02/01 10:02:47;;;;;;;0.85;0.40;;;9.60;99.90;;;;;;5130708;27;20411;-59
2024/02/01 10:05:15;;;;;;;0.70;0.40;;;9.50;99.90;;;;;;5114517;27;20474;-59
2024/02/01 10:07:42;;;;;;;0.70;0.40;;;9.50;99.90;;;;;;5112247;28;20423;-59
2024/02/01 10:10:13;;;;;;;0.70;0.38;;;9.50;99.90;;;;;;5111528;28;20440;-59
2024/02/01 10:12:41;;;;;;;0.70;0.30;;;9.80;99.90;;;;;;5111487;28;20455;-59
2024/02/01 10:15:11;;;;;;;1.75;0.32;;;9.80;99.90;;;;;;5110027;28;20774;-59
2024/02/01 10:17:45;;;;;;;0.50;0.30;;;9.90;99.90;;;;;;5108418;28;20419;-59
2024/02/01 10:20:39;;;;;;;0.60;0.30;;;10.10;99.90;;;;;;5110859;28;20427;-59
2024/02/01 10:23:09;;;;;;;0.70;0.30;;;10.00;99.90;;;;;;5111847;28;20766;-59
2024/02/01 10:25:44;;;;;;;0.90;0.40;;;10.10;99.90;;;;;;5111210;28;20429;-59
2024/02/01 10:28:13;;;;;;;0.60;0.30;;;10.10;99.90;;;;;;5110191;28;20705;-59
2024/02/01 10:30:43;;;;;;;1.20;0.30;;;10.00;99.90;;;;;;5110908;28;20424;-59
2024/02/01 10:33:11;;;;;;;1.42;0.30;;;9.90;99.90;;;;;;5109581;28;20435;-59
2024/02/01 10:35:38;;;;;;;0.93;0.30;;;9.90;99.90;;;;;;5111574;28;20420;-59
2024/02/01 10:38:12;;;;;;;0.65;0.38;;;9.90;99.90;;;;;;5111003;28;20489;-60
2024/02/01 10:40:52;;;;;;;1.90;0.32;;;10.10;99.90;;;;;;5110592;28;20445;-60
2024/02/01 10:43:21;;;;;;;1.10;0.30;;;10.20;99.90;;;;;;5111139;28;20468;-60
2024/02/01 10:46:05;;;;;;;1.20;0.40;;;10.30;99.90;;;;;;5111627;28;20419;-61
2024/02/01 10:48:35;;;;;;;0.80;0.30;;;10.60;99.90;;;;;;5101148;28;20530;-60
2024/02/01 10:51:09;;;;;;;0.60;0.30;;;10.70;97.60;;;;;;5093392;28;20418;-61
2024/02/01 10:53:42;;;;;;;0.50;0.30;;;10.80;93.60;;;;;;5109618;28;20549;-60
2024/02/01 10:56:14;;;;;;;0.50;0.30;;;10.70;47.80;;;;;;5109067;28;20428;-54
2024/02/01 10:58:44;;;;;;;0.90;0.40;;;10.70;54.80;;;;;;5108664;28;20782;-53
2024/02/01 11:01:13;;;;;;;0.60;0.30;;;10.70;71.10;;;;;;5115272;28;20422;-56
2024/02/01 11:03:47;;;;;;;1.50;0.20;;;10.80;74.20;;;;;;5129872;28;20422;-56
2024/02/01 11:06:15;;;;;;;0.30;0.20;;;10.80;59.00;;;;;;5132346;28;20483;-53
2024/02/01 11:08:43;;;;;;;0.40;0.20;;;10.90;50.50;;;;;;5131657;28;20531;-54
2024/02/01 11:11:17;;;;;;;0.40;0.20;;;11.10;51.70;;;;;;5132962;28;20422;-53
2024/02/01 11:13:46;;;;;;;0.40;0.20;;;11.30;19.80;;;;;;5125469;28;20598;-53
2024/02/01 11:16:15;;;;;;;0.50;0.30;;;11.30;1.00;;;;;;5110289;28;20432;-55
2024/02/01 11:18:54;;;;;;;0.40;0.20;;;11.20;1.00;;;;;;5110810;28;20802;-52
2024/02/01 11:21:29;;;;;;;0.40;0.20;;;11.20;1.00;;;;;;5110089;28;20789;-52
2024/02/01 11:24:08;;;;;;;0.80;0.20;;;11.00;1.00;;;;;;5110293;28;20507;-61
2024/02/01 11:26:40;;;;;;;0.40;0.20;;;11.00;19.50;;;;;;5110889;28;20872;-59
2024/02/01 11:29:07;;;;;;;0.30;0.10;;;11.00;1.00;;;;;;5110070;28;20527;-59
2024/02/01 11:31:36;;;;;;;0.40;0.20;;;10.90;4.60;;;;;;5109250;28;20423;-57
2024/02/01 11:34:06;;;;;;;0.40;0.20;;;11.00;19.60;;;;;;5110250;28;20941;-57
2024/02/01 11:36:34;;;;;;;0.40;0.13;;;11.00;14.90;;;;;;5111952;28;20947;-56
2024/02/01 11:39:02;;;;;;;0.90;0.40;;;11.10;7.70;;;;;;5111862;28;20408;-58
2024/02/01 11:41:30;;;;;;;0.30;0.10;;;11.30;1.00;;;;;;5111143;28;20516;-60
2024/02/01 11:43:58;;;;;;;0.50;0.20;;;11.00;1.00;;;;;;5110387;28;20484;-60
2024/02/01 11:46:26;;;;;;;0.30;0.15;;;11.00;1.00;;;;;;5113259;28;20519;-59
2024/02/01 11:48:54;;;;;;;0.45;0.20;;;11.10;1.00;;;;;;5114317;27;20430;-59
2024/02/01 11:51:21;;;;;;;1.00;0.20;;;11.10;1.00;;;;;;5114327;28;20423;-59
2024/02/01 11:53:51;;;;;;;0.60;0.30;;;11.30;1.00;;;;;;5115411;27;20415;-60
2024/02/01 11:56:21;;;;;;;0.50;0.20;;;11.50;1.00;;;;;;5093241;28;20445;-59
2024/02/01 11:58:48;;;;;;;0.30;0.17;;;11.50;1.00;;;;;;5104232;27;20448;-59
2024/02/01 12:01:16;;;;;;;0.32;0.20;;;11.30;1.00;;;;;;5114273;28;20427;-59
2024/02/01 12:03:51;;;;;;;0.43;0.20;;;11.40;1.00;;;;;;5113370;28;20420;-59
2024/02/01 12:06:22;;;;;;;0.30;0.10;;;11.50;1.00;;;;;;5113525;28;20463;-59
2024/02/01 12:08:51;;;;;;;0.40;0.20;;;11.50;1.00;;;;;;5134526;27;20508;-58
2024/02/01 12:11:23;;;;;;;0.50;0.20;;;11.70;1.00;;;;;;5133208;27;20443;-59
2024/02/01 12:13:51;;;;;;;0.40;0.10;;;11.60;1.00;;;;;;5126183;27;20420;-59
2024/02/01 12:16:30;;;;;;;0.40;0.20;;;11.60;1.00;;;;;;5132508;27;20432;-59
2024/02/01 12:19:00;;;;;;;0.50;0.40;;;11.80;1.00;;;;;;5132468;27;20521;-59
2024/02/01 12:21:29;;;;;;;0.97;0.20;;;11.90;1.00;;;;;;5134625;27;20418;-59
2024/02/01 12:23:58;;;;;;;0.40;0.20;;;11.90;1.00;;;;;;5131684;27;20419;-59
2024/02/01 12:26:29;;;;;;;0.50;0.20;;;11.90;1.00;;;;;;5132242;27;20487;-59
2024/02/01 12:28:57;;;;;;;0.50;0.20;;;11.80;1.00;;;;;;5132386;27;20757;-61
2024/02/01 12:31:25;;;;;;;0.52;0.20;;;11.90;1.00;;;;;;5132574;27;20793;-54
2024/02/01 12:33:55;;;;;;;0.50;0.20;;;11.80;1.00;;;;;;5132994;27;20461;-54
2024/02/01 12:36:22;;;;;;;0.50;0.30;;;11.60;1.00;;;;;;5133393;27;20423;-56
2024/02/01 12:38:52;;;;;;;0.40;0.20;;;11.30;1.00;;;;;;5133186;27;20483;-54
2024/02/01 12:41:19;;;;;;;0.50;0.20;;;11.30;1.00;;;;;;5133777;27;20862;-54
2024/02/01 12:43:51;;;;;;;0.40;0.20;;;11.30;1.00;;;;;;5126111;27;20510;-54
2024/02/01 12:46:23;;;;;;;1.30;0.20;;;11.20;1.00;;;;;;5111298;28;20802;-53
2024/02/01 12:48:50;;;;;;;0.50;0.20;;;11.10;1.00;;;;;;5111028;28;20653;-55
2024/02/01 12:51:17;;;;;;;0.50;0.30;;;11.00;1.00;;;;;;5113229;28;20428;-54
2024/02/01 12:53:44;;;;;;;0.50;0.30;;;10.90;1.00;;;;;;5112403;28;20412;-57
2024/02/01 12:56:12;;;;;;;0.50;0.20;;;10.90;1.00;;;;;;5108943;28;20488;-51
2024/02/01 12:58:40;;;;;;;0.50;0.30;;;10.90;1.00;;;;;;5109525;28;20420;-49
2024/02/01 13:01:08;;;;;;;0.60;0.40;;;11.00;1.00;;;;;;5108199;28;20440;-48
2024/02/01 13:03:35;;;;;;;0.40;0.20;;;11.10;1.00;;;;;;5121435;27;20526;-51
2024/02/01 13:06:02;;;;;;;0.50;0.22;;;11.20;1.00;;;;;;5128740;27;20403;-52
2024/02/01 13:08:29;;;;;;;0.60;0.30;;;11.20;1.00;;;;;;5129752;27;20776;-48
2024/02/01 13:10:56;;;;;;;0.50;0.30;;;11.10;1.00;;;;;;5132934;27;20685;-49
2024/02/01 13:13:25;;;;;;;0.53;0.40;;;11.10;1.00;;;;;;5125995;27;20430;-51
2024/02/01 13:15:52;;;;;;;0.50;0.28;;;10.90;1.00;;;;;;5111164;28;20436;-48
2024/02/01 13:18:19;;;;;;;0.60;0.30;;;10.80;1.00;;;;;;5112538;28;20428;-50
2024/02/01 13:20:48;;;;;;;0.57;0.30;;;10.90;1.00;;;;;;5120614;27;20421;-54
2024/02/01 13:23:15;;;;;;;0.50;0.30;;;10.90;1.00;;;;;;5132806;27;20521;-46
2024/02/01 13:25:43;;;;;;;0.70;0.40;;;10.90;1.00;;;;;;5131300;27;20426;-50
2024/02/01 13:28:11;;;;;;;0.80;0.40;;;11.00;1.00;;;;;;5132463;27;20414;-53
2024/02/01 13:30:43;;;;;;;0.60;0.40;;;10.90;1.00;;;;;;5130562;27;20758;-50
2024/02/01 13:33:10;;;;;;;1.00;0.40;;;10.90;1.00;;;;;;5132178;27;20681;-48
2024/02/01 13:35:38;;;;;;;0.70;0.40;;;10.60;1.00;;;;;;5132784;27;20427;-47
2024/02/01 13:38:09;;;;;;;0.90;0.50;;;10.40;1.00;;;;;;5131216;27;20422;-52
2024/02/01 13:40:36;;;;;;;0.70;0.47;;;10.40;1.00;;;;;;5133554;27;20441;-47
2024/02/01 13:43:04;;;;;;;0.65;0.40;;;10.40;1.00;;;;;;5131069;27;20920;-51
2024/02/01 13:45:31;;;;;;;1.50;0.50;;;10.50;1.00;;;;;;5111350;28;20424;-47
2024/02/01 13:47:59;;;;;;;0.70;0.40;;;10.40;1.00;;;;;;5110753;28;20491;-48